Time;durP1;ratioP1;P1;durP2;ratioP2;P2;SDS_P1;SDS_P2;PMS_P1;PMS_P2;Temp;Humidity;BMP_temperature;BMP_pressure;BME280_temperature;BME280_humidity;BME280_pressure;Samples;Min_cycle;Max_cycle;Signal;HPM_P1;HPM_P2
2021/04/22 00:01:43;;;;;;;19.70;10.07;;;;;;;10.97;64.31;101018.66;4981877;28;20411;-86
2021/04/22 00:04:28;;;;;;;13.85;11.27;;;;;;;10.90;64.45;101010.16;4975321;28;20047;-84
2021/04/22 00:07:16;;;;;;;20.08;14.40;;;;;;;10.98;64.54;101017.56;5003969;28;20039;-85
2021/04/22 00:10:04;;;;;;;25.75;13.85;;;;;;;11.09;64.87;101010.75;4989148;28;20043;-85
2021/04/22 00:12:54;;;;;;;21.30;15.13;;;;;;;11.07;64.26;101004.81;4988629;28;20026;-87
2021/04/22 00:15:40;;;;;;;21.25;14.77;;;;;;;10.94;64.08;101005.69;4988071;28;20563;-85
2021/04/22 00:18:25;;;;;;;23.60;14.73;;;;;;;11.11;64.18;100999.56;4988586;28;20050;-85
2021/04/22 00:21:10;;;;;;;18.80;11.35;;;;;;;10.96;64.02;100995.31;4984084;28;20042;-85
2021/04/22 00:23:55;;;;;;;16.90;11.30;;;;;;;11.03;64.14;100995.66;4980443;28;20043;-86
2021/04/22 00:26:40;;;;;;;19.30;12.98;;;;;;;10.93;64.78;100992.41;4975832;28;20038;-85
2021/04/22 00:29:25;;;;;;;22.45;11.20;;;;;;;10.92;65.56;100996.25;5008122;28;20038;-86
2021/04/22 00:32:10;;;;;;;24.00;15.90;;;;;;;10.70;65.04;100991.63;4963778;28;20043;-84
2021/04/22 00:34:55;;;;;;;17.27;12.48;;;;;;;10.90;65.21;100999.28;4979838;28;20047;-84
2021/04/22 00:37:43;;;;;;;25.83;16.40;;;;;;;10.87;64.88;101005.31;4997164;28;20047;-86
2021/04/22 00:40:29;;;;;;;21.55;15.45;;;;;;;10.85;65.57;101004.84;5006333;28;20107;-86
2021/04/22 00:43:16;;;;;;;28.10;16.23;;;;;;;10.87;64.82;101001.81;4979455;28;20047;-85
2021/04/22 00:46:01;;;;;;;23.85;16.30;;;;;;;10.85;66.57;101002.13;4992206;28;20050;-86
2021/04/22 00:48:46;;;;;;;21.83;15.57;;;;;;;10.78;65.21;101004.47;5005219;28;20047;-85
2021/04/22 00:51:32;;;;;;;25.67;15.40;;;;;;;10.84;64.35;101000.50;4991020;28;20042;-85
2021/04/22 00:54:17;;;;;;;29.00;17.73;;;;;;;10.54;64.90;100998.53;4986127;28;20050;-85
2021/04/22 00:57:03;;;;;;;25.58;16.83;;;;;;;10.27;65.75;100997.50;4981173;28;20038;-84
2021/04/22 00:59:48;;;;;;;30.83;17.48;;;;;;;9.99;67.03;100998.63;4981642;28;20042;-85
2021/04/22 01:02:35;;;;;;;17.73;12.40;;;;;;;10.11;66.93;101007.06;4988111;28;20051;-85
2021/04/22 01:05:23;;;;;;;26.00;17.38;;;;;;;9.93;67.65;101007.19;5005289;28;20035;-85
2021/04/22 01:08:08;;;;;;;25.10;16.98;;;;;;;9.93;67.84;101001.75;4982669;28;20050;-85
2021/04/22 01:10:54;;;;;;;39.45;27.40;;;;;;;10.13;67.55;101010.28;4989345;28;20061;-85
2021/04/22 01:13:39;;;;;;;28.92;15.43;;;;;;;10.39;67.61;101007.03;4987702;28;20035;-84
2021/04/22 01:16:24;;;;;;;26.38;17.08;;;;;;;10.37;67.23;101006.53;5000336;28;20038;-85
2021/04/22 01:19:10;;;;;;;31.20;17.52;;;;;;;10.38;67.32;101010.84;4989894;28;20030;-86
2021/04/22 01:21:55;;;;;;;21.48;13.55;;;;;;;10.16;67.00;101003.44;5004472;28;20046;-85
2021/04/22 01:24:40;;;;;;;24.65;17.73;;;;;;;9.75;66.87;100995.34;4999960;28;20038;-84
2021/04/22 01:27:25;;;;;;;18.42;12.65;;;;;;;9.85;68.09;101001.34;4965654;28;20054;-85
2021/04/22 01:30:17;;;;;;;18.10;13.05;;;;;;;9.73;67.44;100997.53;5006398;28;20019;-86
2021/04/22 01:33:03;;;;;;;27.85;18.13;;;;;;;9.77;68.21;100995.81;5007654;28;20041;-84
2021/04/22 01:35:51;;;;;;;23.52;16.27;;;;;;;9.91;68.29;100996.63;5003179;28;20046;-85
2021/04/22 01:38:37;;;;;;;25.50;18.45;;;;;;;9.63;68.76;100986.88;5002148;28;20045;-85
2021/04/22 01:41:22;;;;;;;27.83;18.92;;;;;;;9.63;68.58;100989.59;4988025;28;20043;-86
2021/04/22 01:44:09;;;;;;;28.50;16.25;;;;;;;9.80;68.51;100995.25;4976440;28;20057;-86
2021/04/22 01:46:55;;;;;;;27.48;16.15;;;;;;;9.75;68.39;100993.41;4980798;28;20049;-87
2021/04/22 01:49:40;;;;;;;16.83;12.43;;;;;;;9.65;68.30;100998.25;4983970;28;20042;-86
2021/04/22 01:52:26;;;;;;;30.40;18.08;;;;;;;9.44;68.56;100995.94;5001217;28;20053;-85
2021/04/22 01:55:15;;;;;;;22.77;14.35;;;;;;;9.50;69.50;100993.91;4984613;28;20043;-85
2021/04/22 01:58:01;;;;;;;25.83;17.88;;;;;;;9.79;68.38;100996.34;4979669;28;20062;-86
2021/04/22 02:00:52;;;;;;;26.13;17.10;;;;;;;9.81;68.05;101000.34;4987678;28;20061;-85
2021/04/22 02:03:39;;;;;;;27.40;18.17;;;;;;;9.73;68.22;100987.50;4990590;28;20518;-85
2021/04/22 02:06:24;;;;;;;31.83;17.85;;;;;;;9.87;67.97;100992.91;4996925;28;20043;-86
2021/04/22 02:09:09;;;;;;;19.77;11.98;;;;;;;9.85;68.53;100995.13;4976568;28;20065;-87
2021/04/22 02:11:54;;;;;;;25.60;12.88;;;;;;;9.48;67.99;100989.91;4979459;28;20411;-86
2021/04/22 02:14:39;;;;;;;21.50;13.77;;;;;;;9.37;68.45;100989.28;4978171;28;20038;-86
2021/04/22 02:17:25;;;;;;;28.20;16.60;;;;;;;9.10;69.56;100989.25;4979036;28;20043;-85
2021/04/22 02:20:12;;;;;;;24.95;16.50;;;;;;;9.32;69.58;100994.81;4983899;28;20047;-86
2021/04/22 02:22:57;;;;;;;23.42;16.90;;;;;;;9.47;69.03;100980.16;4985011;28;20053;-86
2021/04/22 02:25:43;;;;;;;31.70;18.02;;;;;;;9.60;68.06;100980.13;4984222;28;20047;-85
2021/04/22 02:28:28;;;;;;;21.30;13.27;;;;;;;9.75;68.26;100984.47;4997065;28;20050;-85
2021/04/22 02:31:13;;;;;;;;;;;;;;;9.73;68.06;100973.09;4977108;28;20065;-85
2021/04/22 02:33:58;;;;;;;26.92;17.17;;;;;;;9.51;68.29;100967.56;4980651;28;19914;-85
2021/04/22 02:36:43;;;;;;;20.38;13.55;;;;;;;9.50;68.61;100972.19;4976632;28;20111;-85
2021/04/22 02:39:28;;;;;;;26.98;16.98;;;;;;;9.55;68.15;100966.66;5002851;28;20058;-85
2021/04/22 02:42:13;;;;;;;23.25;13.65;;;;;;;9.40;68.44;100975.91;4982300;28;20037;-85
2021/04/22 02:44:58;;;;;;;25.90;15.00;;;;;;;9.22;68.89;100976.81;4984414;28;20406;-86
2021/04/22 02:47:44;;;;;;;21.25;13.60;;;;;;;9.17;68.42;100971.47;4998057;28;20026;-86
2021/04/22 02:50:32;;;;;;;27.60;18.13;;;;;;;9.32;69.16;100970.38;4995662;28;20050;-84
2021/04/22 02:53:18;;;;;;;29.38;17.63;;;;;;;9.41;68.64;100974.81;4997283;28;20107;-85
2021/04/22 02:56:03;;;;;;;38.72;18.83;;;;;;;9.47;69.19;100977.44;4988450;28;20060;-86
2021/04/22 02:58:49;;;;;;;39.85;18.52;;;;;;;9.48;69.66;100973.63;4994312;28;20049;-86
2021/04/22 03:01:34;;;;;;;22.75;14.57;;;;;;;9.52;68.35;100977.34;4987894;28;20047;-85
2021/04/22 03:04:19;;;;;;;30.08;13.48;;;;;;;9.56;67.82;100972.91;4982299;28;20058;-86
2021/04/22 03:07:04;;;;;;;24.08;13.13;;;;;;;9.54;68.00;100973.22;4977117;28;20042;-87
2021/04/22 03:09:49;;;;;;;35.83;15.55;;;;;;;9.15;68.60;100976.38;4982300;28;20053;-86
2021/04/22 03:12:35;;;;;;;22.58;13.90;;;;;;;9.19;68.83;100973.91;4973141;28;20043;-85
2021/04/22 03:15:20;;;;;;;23.77;14.10;;;;;;;9.29;69.61;100979.16;4980795;28;20046;-85
2021/04/22 03:18:05;;;;;;;31.88;17.73;;;;;;;9.20;69.59;100975.50;4988076;28;20069;-86
2021/04/22 03:20:50;;;;;;;22.63;15.13;;;;;;;9.20;68.91;100976.28;4984269;28;20047;-86
2021/04/22 03:23:35;;;;;;;;;;;;;;;9.32;68.71;100973.91;4988438;28;20053;-86
2021/04/22 03:26:20;;;;;;;29.02;18.73;;;;;;;9.29;68.80;100979.16;5007358;28;19918;-86
2021/04/22 03:29:05;;;;;;;21.90;13.80;;;;;;;9.47;69.14;100983.66;5004657;28;20041;-85
2021/04/22 03:31:50;;;;;;;20.58;13.82;;;;;;;9.59;67.72;100983.97;4983422;28;20042;-85
2021/04/22 03:34:35;;;;;;;;;;;;;;;9.75;67.74;100984.47;5010654;28;20045;-86
2021/04/22 03:37:20;;;;;;;30.25;16.42;;;;;;;9.37;67.79;100984.66;5000877;28;19914;-86
2021/04/22 03:40:07;;;;;;;27.90;13.43;;;;;;;9.24;68.74;100993.63;4986808;28;20038;-86
2021/04/22 03:42:53;;;;;;;29.20;18.02;;;;;;;8.98;69.84;100998.69;5004565;28;20046;-84
2021/04/22 03:45:38;;;;;;;35.25;17.17;;;;;;;8.96;69.94;100991.94;5006963;28;20061;-84
2021/04/22 03:48:23;;;;;;;26.30;13.48;;;;;;;9.07;70.40;100997.97;4986786;28;20053;-85
2021/04/22 03:51:08;;;;;;;26.38;14.10;;;;;;;8.95;69.42;101009.28;4994498;28;20042;-84
2021/04/22 03:53:53;;;;;;;23.77;14.23;;;;;;;8.60;70.93;101002.53;4994417;28;20533;-85
2021/04/22 03:56:38;;;;;;;27.20;14.88;;;;;;;8.95;70.62;100998.44;5004309;28;20057;-86
2021/04/22 03:59:23;;;;;;;24.63;14.60;;;;;;;8.96;69.85;100997.34;4989990;28;20038;-86
2021/04/22 04:02:08;;;;;;;29.02;16.67;;;;;;;8.90;70.61;100999.34;5002902;28;20049;-85
2021/04/22 04:04:53;;;;;;;29.40;18.25;;;;;;;8.70;71.05;101010.50;4988684;28;20042;-87
2021/04/22 04:07:38;;;;;;;27.27;18.90;;;;;;;8.85;71.17;101010.28;5006533;28;20062;-86
2021/04/22 04:10:23;;;;;;;27.67;16.38;;;;;;;9.14;70.18;101007.34;4985013;28;20043;-87
2021/04/22 04:13:08;;;;;;;35.72;21.02;;;;;;;8.94;71.03;101013.09;4997645;28;20042;-86
2021/04/22 04:15:53;;;;;;;25.38;16.90;;;;;;;8.83;71.49;101008.97;4979082;28;20518;-87
2021/04/22 04:18:39;;;;;;;27.33;16.98;;;;;;;8.91;70.88;101013.72;4980963;28;20058;-86
2021/04/22 04:21:24;;;;;;;34.38;22.33;;;;;;;8.81;70.62;101008.44;4982313;28;20065;-86
2021/04/22 04:24:10;;;;;;;28.98;20.38;;;;;;;8.59;69.98;101023.41;4981584;28;20057;-86
2021/04/22 04:26:55;;;;;;;38.55;21.45;;;;;;;8.57;71.21;101020.22;4982571;28;20050;-85
2021/04/22 04:29:43;;;;;;;30.48;18.98;;;;;;;8.88;72.06;101019.75;4995791;28;20177;-87
2021/04/22 04:32:28;;;;;;;47.63;27.48;;;;;;;8.94;71.36;101018.53;4979521;28;20046;-86
2021/04/22 04:35:14;;;;;;;35.28;23.48;;;;;;;9.01;70.54;101024.38;4975637;28;20091;-86
2021/04/22 04:37:59;;;;;;;31.95;18.75;;;;;;;8.80;69.27;101029.34;4980048;28;20438;-87
2021/04/22 04:40:44;;;;;;;24.25;16.08;;;;;;;8.57;69.76;101025.63;4974684;28;20501;-86
2021/04/22 04:43:29;;;;;;;30.60;19.48;;;;;;;8.94;70.13;101030.19;4982640;28;20039;-84
2021/04/22 04:46:17;;;;;;;28.10;16.58;;;;;;;9.04;69.73;101034.63;5000496;28;20057;-86
2021/04/22 04:49:05;;;;;;;38.17;20.65;;;;;;;9.07;69.42;101039.47;4985553;28;20049;-85
2021/04/22 04:51:50;;;;;;;36.53;21.25;;;;;;;8.72;70.26;101040.06;4986368;28;20042;-86
2021/04/22 04:54:35;;;;;;;26.17;18.35;;;;;;;9.00;69.99;101058.03;4991659;28;20517;-87
2021/04/22 04:57:20;;;;;;;33.00;21.95;;;;;;;9.23;69.43;101050.88;5006898;28;20053;-86
2021/04/22 05:00:07;;;;;;;;;;;;;;;9.35;69.76;101054.72;4978586;28;20050;-87
2021/04/22 05:02:52;;;;;;;33.53;20.40;;;;;;;8.56;72.05;101061.97;5006869;28;19913;-87
2021/04/22 05:05:37;;;;;;;41.83;24.33;;;;;;;8.55;72.85;101073.91;4989353;28;20042;-86
2021/04/22 05:08:22;;;;;;;31.08;20.88;;;;;;;8.57;72.58;101071.72;4991727;28;20050;-87
2021/04/22 05:11:08;;;;;;;54.00;26.80;;;;;;;8.52;73.00;101068.28;4981281;28;20045;-87
2021/04/22 05:13:52;;;;;;;35.47;19.80;;;;;;;8.92;71.06;101066.84;4984684;28;20042;-86
2021/04/22 05:16:38;;;;;;;45.03;26.55;;;;;;;9.03;70.64;101079.16;4991194;28;20039;-88
2021/04/22 05:19:23;;;;;;;36.40;20.38;;;;;;;9.18;70.68;101065.34;4980203;28;20053;-87
2021/04/22 05:22:11;;;;;;;41.45;22.75;;;;;;;9.23;71.30;101072.59;4985739;28;20058;-88
2021/04/22 05:24:56;;;;;;;48.85;28.27;;;;;;;9.34;71.17;101076.75;4978840;28;20066;-87
2021/04/22 05:27:41;;;;;;;35.97;20.75;;;;;;;9.39;71.56;101079.38;4994310;28;20042;-86
2021/04/22 05:30:30;;;;;;;46.38;22.65;;;;;;;9.58;70.82;101077.38;4981149;28;20051;-87
2021/04/22 05:33:15;;;;;;;59.55;29.70;;;;;;;9.51;72.41;101089.72;4987553;28;20076;-86
2021/04/22 05:36:00;;;;;;;38.92;23.60;;;;;;;9.65;72.07;101085.16;5017397;23;20434;-80
2021/04/22 05:38:45;;;;;;;42.10;23.90;;;;;;;9.93;71.15;101088.69;5004644;28;20042;-84
2021/04/22 05:41:30;;;;;;;41.72;24.20;;;;;;;10.01;70.57;101094.22;4999963;28;20044;-80
2021/04/22 05:44:15;;;;;;;40.17;22.98;;;;;;;10.27;69.96;101094.53;4998112;28;20501;-81
2021/04/22 05:47:00;;;;;;;51.42;29.63;;;;;;;10.42;69.30;101094.22;5014654;28;20046;-81
2021/04/22 05:49:45;;;;;;;46.05;24.30;;;;;;;10.49;69.29;101101.97;5010273;28;20037;-82
2021/04/22 05:52:31;;;;;;;40.08;23.40;;;;;;;10.64;69.07;101105.16;5003931;28;20041;-85
2021/04/22 05:55:16;;;;;;;36.22;23.40;;;;;;;10.77;68.91;101106.22;5011332;28;20690;-84
2021/04/22 05:58:01;;;;;;;50.83;27.90;;;;;;;11.00;68.67;101102.41;5023154;28;20037;-85
2021/04/22 06:00:46;;;;;;;35.20;22.20;;;;;;;11.19;68.08;101106.88;5012331;28;20042;-85
2021/04/22 06:03:31;;;;;;;44.45;28.30;;;;;;;11.32;68.24;101108.75;5009359;28;20038;-82
2021/04/22 06:06:16;;;;;;;43.63;28.20;;;;;;;11.44;67.79;101111.69;5008369;28;20049;-82
2021/04/22 06:09:01;;;;;;;35.97;22.55;;;;;;;11.67;67.03;101115.19;5034157;28;20045;-82
2021/04/22 06:11:46;;;;;;;42.72;20.55;;;;;;;11.83;66.40;101111.78;5011841;28;20430;-82
2021/04/22 06:14:31;;;;;;;32.58;19.95;;;;;;;12.03;65.65;101113.16;5015282;28;20417;-82
2021/04/22 06:17:16;;;;;;;32.28;20.85;;;;;;;12.20;65.17;101109.66;5013038;28;20045;-82
2021/04/22 06:20:02;;;;;;;36.90;25.88;;;;;;;12.28;65.52;101108.91;5010265;28;20494;-82
2021/04/22 06:22:48;;;;;;;41.63;26.98;;;;;;;12.35;65.38;101120.13;5002372;28;20037;-82
2021/04/22 06:25:34;;;;;;;35.90;24.60;;;;;;;12.66;64.14;101115.38;5016078;28;20033;-82
2021/04/22 06:28:20;;;;;;;35.85;24.75;;;;;;;12.99;63.24;101123.13;5009566;28;21364;-82
2021/04/22 06:31:06;;;;;;;35.35;24.00;;;;;;;12.99;63.73;101125.84;5026081;28;20046;-82
2021/04/22 06:33:51;;;;;;;36.97;24.52;;;;;;;13.14;63.68;101128.13;5013533;28;20033;-84
2021/04/22 06:36:36;;;;;;;38.10;24.67;;;;;;;13.24;62.34;101131.34;5013735;28;20038;-85
2021/04/22 06:39:27;;;;;;;26.90;19.00;;;;;;;13.41;62.15;101130.50;5000139;28;20497;-81
2021/04/22 06:42:11;;;;;;;41.55;23.75;;;;;;;13.51;60.67;101119.22;5018667;28;20041;-81
2021/04/22 06:44:56;;;;;;;28.65;19.08;;;;;;;13.67;60.10;101128.50;5017160;28;20045;-81
2021/04/22 06:47:43;;;;;;;28.90;17.90;;;;;;;14.02;59.47;101131.13;5025889;28;20037;-82
2021/04/22 06:50:28;;;;;;;34.85;23.17;;;;;;;13.81;60.22;101131.06;5014865;28;20414;-82
2021/04/22 06:53:13;;;;;;;29.77;18.25;;;;;;;14.39;57.74;101138.56;5011452;28;20045;-80
2021/04/22 06:55:58;;;;;;;23.33;17.20;;;;;;;14.37;57.73;101132.63;5015273;28;20513;-84
2021/04/22 06:58:43;;;;;;;30.92;18.40;;;;;;;14.95;56.11;101139.97;5023464;28;20050;-83
2021/04/22 07:01:28;;;;;;;25.73;17.35;;;;;;;15.02;55.22;101138.63;5027628;28;20042;-81
2021/04/22 07:04:13;;;;;;;30.25;21.33;;;;;;;15.50;53.98;101151.72;5024655;28;20042;-80
2021/04/22 07:06:58;;;;;;;;;;;;;;;15.86;52.56;101146.38;5015808;28;20034;-80
2021/04/22 07:09:42;;;;;;;34.95;21.88;;;;;;;16.19;50.14;101154.53;5012805;28;19913;-81
2021/04/22 07:12:27;;;;;;;24.52;16.65;;;;;;;16.65;48.79;101150.56;5010454;28;20049;-80
2021/04/22 07:15:14;;;;;;;30.50;20.45;;;;;;;17.38;47.05;101150.34;5004949;28;20037;-80
2021/04/22 07:18:01;;;;;;;33.60;20.05;;;;;;;17.58;46.32;101149.31;5029020;28;20034;-80
2021/04/22 07:20:46;;;;;;;24.15;16.95;;;;;;;18.28;43.90;101157.84;5009019;28;20042;-80
2021/04/22 07:23:31;;;;;;;22.17;13.82;;;;;;;18.40;44.25;101160.50;5009459;28;20041;-80
2021/04/22 07:26:17;;;;;;;;;;;;;;;18.78;43.74;101160.66;5009117;28;20053;-79
2021/04/22 07:29:03;;;;;;;19.77;13.13;;;;;;;18.67;41.95;101161.56;5026078;28;19913;-80
2021/04/22 07:31:49;;;;;;;17.02;12.85;;;;;;;19.67;39.76;101164.44;5007382;28;20042;-79
2021/04/22 07:34:34;;;;;;;19.17;12.18;;;;;;;19.83;39.84;101157.66;5025803;28;20042;-76
2021/04/22 07:37:20;;;;;;;15.57;11.90;;;;;;;19.55;41.05;101163.47;5025912;28;20410;-74
2021/04/22 07:40:08;;;;;;;16.08;11.05;;;;;;;19.27;40.02;101168.38;5026025;28;20041;-75
2021/04/22 07:42:54;;;;;;;16.65;11.23;;;;;;;19.55;39.12;101170.94;5027094;28;20034;-74
2021/04/22 07:45:42;;;;;;;13.10;9.02;;;;;;;19.95;39.77;101170.50;5009518;28;20034;-75
2021/04/22 07:48:27;;;;;;;33.78;14.38;;;;;;;22.16;35.40;101182.22;5006153;28;20038;-75
2021/04/22 07:51:12;;;;;;;;;;;;;;;21.54;35.28;101175.63;5027045;28;20038;-74
2021/04/22 07:53:57;;;;;;;21.13;11.32;;;;;;;22.26;34.53;101174.38;5026858;28;19914;-76
2021/04/22 07:56:42;;;;;;;16.67;11.55;;;;;;;23.49;32.49;101177.16;5024001;28;20037;-75
2021/04/22 07:59:27;;;;;;;;;;;;;;;21.89;34.74;101177.97;5026562;28;20045;-75
2021/04/22 08:02:12;;;;;;;19.58;11.60;;;;;;;23.31;32.95;101179.06;5024951;28;20369;-74
2021/04/22 08:04:57;;;;;;;18.75;11.18;;;;;;;23.91;30.77;101173.69;5010200;28;20046;-76
2021/04/22 08:07:42;;;;;;;18.13;10.50;;;;;;;24.14;31.49;101176.88;5006951;28;20033;-75
2021/04/22 08:10:30;;;;;;;14.95;10.68;;;;;;;21.92;34.09;101171.69;5007356;28;20041;-76
2021/04/22 08:13:18;;;;;;;15.27;10.85;;;;;;;23.26;31.51;101177.41;5023857;28;20041;-76
2021/04/22 08:16:04;;;;;;;14.38;10.52;;;;;;;22.44;33.54;101169.81;5027389;28;20033;-75
2021/04/22 08:18:48;;;;;;;15.23;10.35;;;;;;;24.02;30.23;101173.72;5024182;28;20045;-75
2021/04/22 08:21:34;;;;;;;18.25;11.60;;;;;;;25.32;28.76;101175.53;5010266;28;20042;-76
2021/04/22 08:24:19;;;;;;;17.13;11.20;;;;;;;24.33;29.30;101172.94;5025111;28;20037;-76
2021/04/22 08:27:05;;;;;;;35.20;13.07;;;;;;;25.69;28.17;101174.16;5026129;28;20038;-76
2021/04/22 08:29:49;;;;;;;17.73;11.50;;;;;;;23.14;31.09;101172.22;5024424;28;20045;-76
2021/04/22 08:32:34;;;;;;;41.08;20.67;;;;;;;24.52;30.19;101172.53;5027120;28;20398;-75
2021/04/22 08:35:19;;;;;;;45.53;18.45;;;;;;;25.14;29.75;101169.25;5001680;28;20498;-76
2021/04/22 08:38:05;;;;;;;23.75;14.68;;;;;;;29.25;23.35;101172.72;5015191;28;20033;-75
2021/04/22 08:40:51;;;;;;;24.05;14.55;;;;;;;29.92;22.76;101188.06;5003991;28;20038;-77
2021/04/22 08:43:37;;;;;;;19.00;12.63;;;;;;;31.04;20.89;101182.00;4987367;28;20041;-76
2021/04/22 08:46:23;;;;;;;20.77;13.45;;;;;;;31.39;20.59;101181.75;5013206;28;20034;-77
2021/04/22 08:49:08;;;;;;;17.88;12.60;;;;;;;30.40;21.50;101178.09;5018080;28;20037;-76
2021/04/22 08:51:54;;;;;;;16.50;11.23;;;;;;;29.92;20.51;101181.69;5025696;28;20042;-76
2021/04/22 08:54:39;;;;;;;24.52;12.68;;;;;;;29.68;22.13;101187.41;5027569;28;20049;-75
2021/04/22 08:57:25;;;;;;;16.85;10.73;;;;;;;28.66;22.86;101175.44;5017256;28;20498;-74
2021/04/22 09:00:14;;;;;;;19.40;10.65;;;;;;;30.68;20.30;101182.97;5024042;28;20038;-77
2021/04/22 09:02:58;;;;;;;19.63;12.38;;;;;;;28.74;22.50;101182.53;5009013;28;20038;-76
2021/04/22 09:05:44;;;;;;;13.63;11.25;;;;;;;27.19;24.36;101187.19;4990878;28;20490;-76
2021/04/22 09:08:46;;;;;;;16.60;11.63;;;;;;;28.68;22.72;101182.19;5006137;28;20034;-77
2021/04/22 09:11:31;;;;;;;20.00;11.55;;;;;;;31.48;19.70;101191.56;5007081;28;20033;-77
2021/04/22 09:14:19;;;;;;;13.25;11.13;;;;;;;29.09;21.41;101181.84;5024125;28;20042;-77
2021/04/22 09:17:17;;;;;;;34.83;15.40;;;;;;;26.57;25.47;101175.47;5027774;28;20033;-76
2021/04/22 09:20:04;;;;;;;600.90;51.67;;;;;;;29.93;22.89;101186.06;5021038;28;20034;-75
2021/04/22 09:22:49;;;;;;;18.80;11.00;;;;;;;28.04;30.18;101174.06;5023594;28;20033;-76
2021/04/22 09:25:34;;;;;;;17.33;11.93;;;;;;;26.38;26.52;101179.66;5022388;28;20042;-76
2021/04/22 09:28:19;;;;;;;27.40;13.30;;;;;;;25.34;27.86;101180.69;5006074;28;20045;-77
2021/04/22 09:31:06;;;;;;;52.42;13.93;;;;;;;27.57;24.57;101184.38;5030517;28;20502;-77
2021/04/22 09:34:06;;;;;;;17.30;11.82;;;;;;;30.80;20.60;101184.25;5024390;28;20045;-78
2021/04/22 09:36:53;;;;;;;23.58;13.40;;;;;;;27.28;24.45;101180.34;5015348;28;20029;-76
2021/04/22 09:39:38;;;;;;;15.40;11.75;;;;;;;27.17;24.12;101170.06;5021894;28;20505;-77
2021/04/22 09:42:25;;;;;;;16.42;11.73;;;;;;;25.94;26.27;101163.66;5005593;28;20486;-76
2021/04/22 09:45:12;;;;;;;15.40;12.65;;;;;;;25.95;26.60;101171.63;5002413;28;20042;-76
2021/04/22 09:47:57;;;;;;;23.52;15.18;;;;;;;24.73;28.50;101165.34;5009450;28;20695;-77
2021/04/22 09:50:43;;;;;;;20.00;13.20;;;;;;;28.00;23.99;101176.13;5021986;28;20046;-77
2021/04/22 09:53:29;;;;;;;24.13;11.80;;;;;;;28.82;22.32;101173.56;5002769;28;20045;-77
2021/04/22 09:56:14;;;;;;;17.98;12.45;;;;;;;27.47;23.50;101168.50;5008886;28;20049;-78
2021/04/22 09:59:07;;;;;;;19.98;13.10;;;;;;;27.72;22.66;101168.97;5023715;28;20034;-75
2021/04/22 10:02:04;;;;;;;16.25;12.13;;;;;;;27.81;22.58;101154.47;5020384;28;20037;-77
2021/04/22 10:04:52;;;;;;;17.92;13.10;;;;;;;33.71;16.46;101167.75;5006601;28;20046;-76
2021/04/22 10:07:37;;;;;;;14.95;11.27;;;;;;;30.62;19.24;101151.06;5005628;28;20038;-76
2021/04/22 10:10:23;;;;;;;23.40;14.98;;;;;;;30.76;19.43;101153.47;5008539;28;20033;-77
2021/04/22 10:13:11;;;;;;;20.48;12.40;;;;;;;30.81;19.27;101152.13;5008626;28;20041;-77
2021/04/22 10:15:58;;;;;;;18.90;13.75;;;;;;;33.15;17.46;101155.81;5007132;28;20417;-79
2021/04/22 10:18:45;;;;;;;16.13;11.23;;;;;;;27.63;23.17;101143.56;5011732;28;20509;-78
2021/04/22 10:21:41;;;;;;;18.60;12.15;;;;;;;28.75;22.86;101140.09;5020822;28;20041;-77
2021/04/22 10:24:26;;;;;;;27.92;12.30;;;;;;;28.78;21.80;101141.25;5014522;28;20046;-76
2021/04/22 10:27:11;;;;;;;17.20;12.40;;;;;;;28.10;22.96;101138.81;5012803;28;20041;-76
2021/04/22 10:29:58;;;;;;;16.80;12.27;;;;;;;25.39;26.19;101136.50;5015619;28;21899;-76
2021/04/22 10:32:43;;;;;;;17.70;12.45;;;;;;;24.19;28.42;101134.03;5013171;28;20042;-77
2021/04/22 10:35:31;;;;;;;16.55;12.48;;;;;;;27.92;23.41;101139.13;5017491;28;20041;-76
2021/04/22 10:38:18;;;;;;;16.08;12.68;;;;;;;23.42;29.93;101127.91;5006207;28;20042;-77
2021/04/22 10:41:03;;;;;;;18.40;13.27;;;;;;;21.06;34.58;101127.63;4996320;28;20042;-78
2021/04/22 10:43:48;;;;;;;19.27;13.85;;;;;;;19.69;36.87;101123.50;4985047;28;20507;-78
2021/04/22 10:46:37;;;;;;;24.48;12.98;;;;;;;18.68;38.98;101117.13;4982466;28;20046;-78
2021/04/22 10:49:21;;;;;;;18.55;13.57;;;;;;;20.86;35.02;101118.69;4981032;28;20440;-77
2021/04/22 10:52:07;;;;;;;15.95;11.82;;;;;;;21.09;34.25;101124.09;4987192;28;20042;-78
2021/04/22 10:54:53;;;;;;;19.58;12.45;;;;;;;22.68;31.43;101121.25;5002586;28;20038;-77
2021/04/22 10:57:38;;;;;;;19.48;12.00;;;;;;;27.87;23.90;101122.81;4971298;28;20499;-78
2021/04/22 11:00:32;;;;;;;23.17;13.77;;;;;;;28.15;22.89;101123.59;5029587;28;20045;-77
2021/04/22 11:03:29;;;;;;;30.40;15.87;;;;;;;32.70;17.76;101131.72;4986328;28;20499;-77
2021/04/22 11:06:21;;;;;;;32.30;18.83;;;;;;;34.74;16.15;101130.31;4982912;28;20054;-76
2021/04/22 11:09:21;;;;;;;39.92;21.63;;;;;;;35.96;15.53;101143.19;5005640;28;20046;-77
2021/04/22 11:12:06;;;;;;;33.67;20.85;;;;;;;34.87;15.86;101130.16;5011583;28;20041;-76
2021/04/22 11:14:52;;;;;;;20.55;13.05;;;;;;;31.98;16.69;101121.28;5022935;28;20034;-77
2021/04/22 11:17:40;;;;;;;28.77;17.40;;;;;;;26.01;26.09;101113.41;5015215;28;20037;-77
2021/04/22 11:20:25;;;;;;;15.55;11.05;;;;;;;23.31;29.63;101102.13;5014182;28;20042;-77
2021/04/22 11:23:12;;;;;;;15.18;11.15;;;;;;;22.87;30.30;101105.13;5006433;28;20046;-76
2021/04/22 11:25:57;;;;;;;15.13;9.88;;;;;;;26.92;24.54;101102.56;4981501;28;20058;-76
2021/04/22 11:28:42;;;;;;;13.32;9.30;;;;;;;34.25;16.08;101104.25;5013266;28;20041;-76
2021/04/22 11:31:27;;;;;;;11.93;9.63;;;;;;;34.13;15.96;101117.25;5009009;28;20045;-76
2021/04/22 11:34:12;;;;;;;10.10;8.07;;;;;;;27.79;22.14;101093.38;5013305;28;20042;-77
2021/04/22 11:36:57;;;;;;;14.75;9.25;;;;;;;24.72;27.16;101092.22;5016952;28;20437;-75
2021/04/22 11:39:42;;;;;;;11.80;9.00;;;;;;;22.49;30.48;101089.84;4999669;28;20045;-77
2021/04/22 11:42:36;;;;;;;14.32;8.82;;;;;;;25.80;26.55;101088.53;5014214;23;20050;-81
2021/04/22 11:45:27;;;;;;;15.02;9.25;;;;;;;28.18;22.78;101101.16;5016784;28;20166;-81
2021/04/22 11:48:12;;;;;;;13.57;10.15;;;;;;;29.35;21.08;101100.88;5008078;28;20042;-80
2021/04/22 11:50:57;;;;;;;14.43;9.63;;;;;;;31.25;18.96;101092.25;5017468;28;20046;-80
2021/04/22 11:53:47;;;;;;;18.92;11.73;;;;;;;31.81;18.34;101097.31;4994551;28;20053;-81
2021/04/22 11:56:32;;;;;;;19.52;13.23;;;;;;;33.25;16.87;101090.59;4994570;28;20426;-81
2021/04/22 11:59:18;;;;;;;26.52;12.75;;;;;;;35.21;15.63;101102.75;4992901;28;20030;-82
2021/04/22 12:02:09;;;;;;;13.73;8.60;;;;;;;35.04;14.88;101088.19;4999740;28;20050;-81
2021/04/22 12:04:56;;;;;;;10.75;8.15;;;;;;;34.25;15.27;101087.28;5016408;28;20413;-81
2021/04/22 12:07:41;;;;;;;12.27;8.40;;;;;;;35.63;13.68;101088.59;5010213;28;20426;-82
2021/04/22 12:10:29;;;;;;;30.83;18.45;;;;;;;37.90;12.76;101089.25;4993151;28;20410;-80
2021/04/22 12:13:17;;;;;;;17.77;9.35;;;;;;;35.63;14.16;101080.09;5005608;28;20038;-80
2021/04/22 12:16:05;;;;;;;15.50;9.05;;;;;;;30.83;18.19;101065.44;5011427;28;20042;-83
2021/04/22 12:18:51;;;;;;;16.25;7.78;;;;;;;34.16;15.13;101071.09;5001951;28;20038;-82
2021/04/22 12:21:39;;;;;;;19.80;12.23;;;;;;;36.15;13.58;101079.53;4998417;28;20057;-82
2021/04/22 12:24:24;;;;;;;29.08;16.63;;;;;;;37.51;13.08;101073.72;4991678;28;20415;-82
2021/04/22 12:27:09;;;;;;;10.80;8.40;;;;;;;34.32;15.21;101068.00;4989002;28;20042;-82
2021/04/22 12:29:54;;;;;;;10.63;7.53;;;;;;;32.99;16.13;101075.06;4995195;28;20041;-80
2021/04/22 12:32:46;;;;;;;11.50;7.63;;;;;;;35.14;14.74;101069.94;4995244;28;20432;-81
2021/04/22 12:35:32;;;;;;;10.27;8.32;;;;;;;29.89;19.11;101053.50;4991568;28;20038;-80
2021/04/22 12:38:24;;;;;;;13.35;8.05;;;;;;;24.73;26.32;101040.19;5008145;28;20056;-80
2021/04/22 12:41:12;;;;;;;10.55;8.00;;;;;;;24.83;26.43;101048.47;5009813;28;20053;-80